sensor_id;sensor_type;location;lat;lon;timestamp;P1;durP1;ratioP1;P2;durP2;ratioP2
51296;SDS011;37380;45.186;9.792;2023-02-28T00:00:43;14.27;;;7.95;;
51296;SDS011;37380;45.186;9.792;2023-02-28T00:03:37;21.45;;;8.90;;
51296;SDS011;37380;45.186;9.792;2023-02-28T00:06:11;17.48;;;8.15;;
51296;SDS011;37380;45.186;9.792;2023-02-28T00:09:12;14.60;;;7.70;;
51296;SDS011;37380;45.186;9.792;2023-02-28T00:12:06;11.00;;;6.45;;
51296;SDS011;37380;45.186;9.792;2023-02-28T00:14:36;10.75;;;8.45;;
51296;SDS011;37380;45.186;9.792;2023-02-28T00:17:03;16.60;;;7.55;;
51296;SDS011;37380;45.186;9.792;2023-02-28T00:19:30;15.13;;;7.03;;
51296;SDS011;37380;45.186;9.792;2023-02-28T00:22:04;21.17;;;8.98;;
51296;SDS011;37380;45.186;9.792;2023-02-28T00:24:58;14.73;;;8.43;;
51296;SDS011;37380;45.186;9.792;2023-02-28T00:27:25;14.50;;;7.10;;
51296;SDS011;37380;45.186;9.792;2023-02-28T00:29:52;10.82;;;6.55;;
51296;SDS011;37380;45.186;9.792;2023-02-28T00:32:20;12.63;;;8.18;;
51296;SDS011;37380;45.186;9.792;2023-02-28T00:34:47;18.10;;;7.57;;
51296;SDS011;37380;45.186;9.792;2023-02-28T00:37:15;14.82;;;8.52;;
51296;SDS011;37380;45.186;9.792;2023-02-28T00:39:42;11.25;;;7.95;;
51296;SDS011;37380;45.186;9.792;2023-02-28T00:42:09;9.82;;;7.43;;
51296;SDS011;37380;45.186;9.792;2023-02-28T00:44:36;19.60;;;8.68;;
51296;SDS011;37380;45.186;9.792;2023-02-28T00:47:03;16.58;;;7.95;;
51296;SDS011;37380;45.186;9.792;2023-02-28T00:49:30;10.40;;;7.90;;
51296;SDS011;37380;45.186;9.792;2023-02-28T00:52:05;15.13;;;7.63;;
51296;SDS011;37380;45.186;9.792;2023-02-28T00:55:07;13.48;;;7.10;;
51296;SDS011;37380;45.186;9.792;2023-02-28T00:58:01;15.88;;;7.22;;
51296;SDS011;37380;45.186;9.792;2023-02-28T01:00:35;8.77;;;7.38;;
51296;SDS011;37380;45.186;9.792;2023-02-28T01:03:36;11.93;;;6.88;;
51296;SDS011;37380;45.186;9.792;2023-02-28T01:06:30;11.43;;;8.68;;
51296;SDS011;37380;45.186;9.792;2023-02-28T01:08:58;15.18;;;8.07;;
51296;SDS011;37380;45.186;9.792;2023-02-28T01:11:25;11.98;;;8.63;;
51296;SDS011;37380;45.186;9.792;2023-02-28T01:14:00;10.48;;;6.57;;
51296;SDS011;37380;45.186;9.792;2023-02-28T01:16:55;14.45;;;8.93;;
51296;SDS011;37380;45.186;9.792;2023-02-28T01:19:26;12.63;;;8.25;;
51296;SDS011;37380;45.186;9.792;2023-02-28T01:22:00;11.88;;;6.68;;
51296;SDS011;37380;45.186;9.792;2023-02-28T01:24:59;10.70;;;5.88;;
51296;SDS011;37380;45.186;9.792;2023-02-28T01:27:26;8.75;;;7.43;;
51296;SDS011;37380;45.186;9.792;2023-02-28T01:29:53;11.32;;;6.50;;
51296;SDS011;37380;45.186;9.792;2023-02-28T01:32:20;27.50;;;8.50;;
51296;SDS011;37380;45.186;9.792;2023-02-28T01:34:49;11.18;;;7.78;;
51296;SDS011;37380;45.186;9.792;2023-02-28T01:37:23;11.88;;;7.57;;
51296;SDS011;37380;45.186;9.792;2023-02-28T01:40:17;13.85;;;7.35;;
51296;SDS011;37380;45.186;9.792;2023-02-28T01:42:44;32.20;;;8.65;;
51296;SDS011;37380;45.186;9.792;2023-02-28T01:47:50;8.00;;;6.70;;
51296;SDS011;37380;45.186;9.792;2023-02-28T01:50:25;8.88;;;6.68;;
51296;SDS011;37380;45.186;9.792;2023-02-28T01:52:55;14.82;;;8.10;;
51296;SDS011;37380;45.186;9.792;2023-02-28T01:55:30;15.82;;;7.15;;
51296;SDS011;37380;45.186;9.792;2023-02-28T01:58:06;7.97;;;6.65;;
51296;SDS011;37380;45.186;9.792;2023-02-28T02:01:09;10.52;;;7.15;;
51296;SDS011;37380;45.186;9.792;2023-02-28T02:04:15;13.80;;;6.93;;
51296;SDS011;37380;45.186;9.792;2023-02-28T02:07:10;9.77;;;6.88;;
51296;SDS011;37380;45.186;9.792;2023-02-28T02:09:38;10.80;;;6.65;;
51296;SDS011;37380;45.186;9.792;2023-02-28T02:12:10;7.25;;;6.53;;
51296;SDS011;37380;45.186;9.792;2023-02-28T02:14:57;11.65;;;6.07;;
51296;SDS011;37380;45.186;9.792;2023-02-28T02:17:39;8.38;;;4.88;;
51296;SDS011;37380;45.186;9.792;2023-02-28T02:27:20;9.65;;;5.45;;
51296;SDS011;37380;45.186;9.792;2023-02-28T02:35:49;8.52;;;7.43;;
51296;SDS011;37380;45.186;9.792;2023-02-28T02:44:01;9.40;;;5.85;;
51296;SDS011;37380;45.186;9.792;2023-02-28T02:46:35;8.48;;;6.93;;
51296;SDS011;37380;45.186;9.792;2023-02-28T02:49:08;10.63;;;7.25;;
51296;SDS011;37380;45.186;9.792;2023-02-28T02:51:39;8.82;;;5.90;;
51296;SDS011;37380;45.186;9.792;2023-02-28T02:54:20;12.00;;;7.35;;
51296;SDS011;37380;45.186;9.792;2023-02-28T02:57:06;8.30;;;6.30;;
51296;SDS011;37380;45.186;9.792;2023-02-28T03:00:11;8.93;;;6.53;;
51296;SDS011;37380;45.186;9.792;2023-02-28T03:03:15;10.65;;;6.38;;
51296;SDS011;37380;45.186;9.792;2023-02-28T03:06:25;9.02;;;6.85;;
51296;SDS011;37380;45.186;9.792;2023-02-28T03:09:02;12.15;;;7.90;;
51296;SDS011;37380;45.186;9.792;2023-02-28T03:12:03;11.30;;;8.20;;
51296;SDS011;37380;45.186;9.792;2023-02-28T03:20:49;10.55;;;6.78;;
51296;SDS011;37380;45.186;9.792;2023-02-28T03:23:48;11.00;;;6.97;;
51296;SDS011;37380;45.186;9.792;2023-02-28T03:26:32;16.63;;;9.23;;
51296;SDS011;37380;45.186;9.792;2023-02-28T03:29:08;18.02;;;7.40;;
51296;SDS011;37380;45.186;9.792;2023-02-28T03:31:52;15.77;;;8.20;;
51296;SDS011;37380;45.186;9.792;2023-02-28T03:34:29;17.13;;;8.50;;
51296;SDS011;37380;45.186;9.792;2023-02-28T03:37:08;21.92;;;7.57;;
51296;SDS011;37380;45.186;9.792;2023-02-28T03:39:42;18.20;;;8.60;;
51296;SDS011;37380;45.186;9.792;2023-02-28T03:42:18;13.68;;;7.70;;
51296;SDS011;37380;45.186;9.792;2023-02-28T03:44:56;8.32;;;7.43;;
51296;SDS011;37380;45.186;9.792;2023-02-28T03:50:10;9.25;;;6.88;;
51296;SDS011;37380;45.186;9.792;2023-02-28T03:52:45;11.07;;;7.53;;
51296;SDS011;37380;45.186;9.792;2023-02-28T03:55:24;11.25;;;8.15;;
51296;SDS011;37380;45.186;9.792;2023-02-28T03:58:36;7.10;;;6.40;;
51296;SDS011;37380;45.186;9.792;2023-02-28T04:01:45;11.90;;;8.20;;
51296;SDS011;37380;45.186;9.792;2023-02-28T04:04:48;10.50;;;8.32;;
51296;SDS011;37380;45.186;9.792;2023-02-28T04:07:15;7.28;;;6.28;;
51296;SDS011;37380;45.186;9.792;2023-02-28T04:09:42;15.23;;;8.55;;
51296;SDS011;37380;45.186;9.792;2023-02-28T04:12:10;11.48;;;7.55;;
51296;SDS011;37380;45.186;9.792;2023-02-28T04:14:37;9.60;;;7.88;;
51296;SDS011;37380;45.186;9.792;2023-02-28T04:17:04;14.45;;;9.48;;
51296;SDS011;37380;45.186;9.792;2023-02-28T04:19:31;13.13;;;7.80;;
51296;SDS011;37380;45.186;9.792;2023-02-28T04:22:09;14.73;;;8.93;;
51296;SDS011;37380;45.186;9.792;2023-02-28T04:25:11;14.20;;;10.07;;
51296;SDS011;37380;45.186;9.792;2023-02-28T04:28:05;13.75;;;9.65;;
51296;SDS011;37380;45.186;9.792;2023-02-28T04:30:32;12.73;;;10.02;;
51296;SDS011;37380;45.186;9.792;2023-02-28T04:32:59;10.70;;;8.15;;
51296;SDS011;37380;45.186;9.792;2023-02-28T04:35:26;13.75;;;8.18;;
51296;SDS011;37380;45.186;9.792;2023-02-28T04:37:53;11.23;;;8.90;;
51296;SDS011;37380;45.186;9.792;2023-02-28T04:40:21;14.50;;;7.97;;
51296;SDS011;37380;45.186;9.792;2023-02-28T04:42:48;9.23;;;8.18;;
51296;SDS011;37380;45.186;9.792;2023-02-28T04:45:15;11.73;;;7.63;;
51296;SDS011;37380;45.186;9.792;2023-02-28T04:47:48;10.70;;;8.98;;
51296;SDS011;37380;45.186;9.792;2023-02-28T04:50:42;12.20;;;9.75;;
51296;SDS011;37380;45.186;9.792;2023-02-28T04:53:09;12.35;;;7.38;;
51296;SDS011;37380;45.186;9.792;2023-02-28T04:55:36;11.38;;;7.55;;
51296;SDS011;37380;45.186;9.792;2023-02-28T04:58:03;9.63;;;7.90;;
51296;SDS011;37380;45.186;9.792;2023-02-28T05:00:36;9.45;;;8.48;;
51296;SDS011;37380;45.186;9.792;2023-02-28T05:03:30;15.93;;;9.18;;
51296;SDS011;37380;45.186;9.792;2023-02-28T05:05:57;14.75;;;8.75;;
51296;SDS011;37380;45.186;9.792;2023-02-28T05:08:24;10.20;;;9.02;;
51296;SDS011;37380;45.186;9.792;2023-02-28T05:10:51;11.35;;;8.15;;
51296;SDS011;37380;45.186;9.792;2023-02-28T05:13:18;8.73;;;7.47;;
51296;SDS011;37380;45.186;9.792;2023-02-28T05:15:45;11.25;;;7.63;;
51296;SDS011;37380;45.186;9.792;2023-02-28T05:18:12;10.27;;;8.50;;
51296;SDS011;37380;45.186;9.792;2023-02-28T05:20:46;10.57;;;7.78;;
51296;SDS011;37380;45.186;9.792;2023-02-28T05:23:40;8.73;;;6.97;;
51296;SDS011;37380;45.186;9.792;2023-02-28T05:26:07;12.55;;;8.63;;
51296;SDS011;37380;45.186;9.792;2023-02-28T05:28:55;11.05;;;7.85;;
51296;SDS011;37380;45.186;9.792;2023-02-28T05:31:56;10.02;;;7.35;;
51296;SDS011;37380;45.186;9.792;2023-02-28T05:34:57;10.05;;;6.97;;
51296;SDS011;37380;45.186;9.792;2023-02-28T05:37:51;8.50;;;7.38;;
51296;SDS011;37380;45.186;9.792;2023-02-28T05:40:18;8.70;;;6.53;;
51296;SDS011;37380;45.186;9.792;2023-02-28T05:42:47;9.52;;;7.47;;
51296;SDS011;37380;45.186;9.792;2023-02-28T05:45:16;7.63;;;6.25;;
51296;SDS011;37380;45.186;9.792;2023-02-28T05:47:44;15.43;;;8.93;;
51296;SDS011;37380;45.186;9.792;2023-02-28T05:50:11;11.15;;;7.97;;
51296;SDS011;37380;45.186;9.792;2023-02-28T05:52:38;12.70;;;8.25;;
51296;SDS011;37380;45.186;9.792;2023-02-28T05:55:05;26.33;;;9.15;;
51296;SDS011;37380;45.186;9.792;2023-02-28T05:57:32;9.77;;;8.43;;
51296;SDS011;37380;45.186;9.792;2023-02-28T05:59:59;8.60;;;7.47;;
51296;SDS011;37380;45.186;9.792;2023-02-28T06:02:26;9.63;;;6.82;;
51296;SDS011;37380;45.186;9.792;2023-02-28T06:04:53;10.50;;;7.63;;
51296;SDS011;37380;45.186;9.792;2023-02-28T06:07:20;8.38;;;7.50;;
51296;SDS011;37380;45.186;9.792;2023-02-28T06:09:49;9.98;;;8.27;;
51296;SDS011;37380;45.186;9.792;2023-02-28T06:12:15;10.25;;;8.77;;
51296;SDS011;37380;45.186;9.792;2023-02-28T06:14:49;10.27;;;8.23;;
51296;SDS011;37380;45.186;9.792;2023-02-28T06:17:50;8.80;;;7.45;;
51296;SDS011;37380;45.186;9.792;2023-02-28T06:20:54;15.40;;;8.82;;
51296;SDS011;37380;45.186;9.792;2023-02-28T06:23:55;11.35;;;8.57;;
51296;SDS011;37380;45.186;9.792;2023-02-28T06:26:58;16.90;;;9.05;;
51296;SDS011;37380;45.186;9.792;2023-02-28T06:29:35;10.32;;;8.35;;
51296;SDS011;37380;45.186;9.792;2023-02-28T06:32:02;13.82;;;9.88;;
51296;SDS011;37380;45.186;9.792;2023-02-28T06:34:29;15.20;;;10.07;;
51296;SDS011;37380;45.186;9.792;2023-02-28T06:36:57;21.75;;;10.40;;
51296;SDS011;37380;45.186;9.792;2023-02-28T06:39:31;15.10;;;11.57;;
51296;SDS011;37380;45.186;9.792;2023-02-28T06:41:58;16.60;;;10.93;;
51296;SDS011;37380;45.186;9.792;2023-02-28T06:44:25;16.50;;;12.77;;
51296;SDS011;37380;45.186;9.792;2023-02-28T06:46:52;20.38;;;12.10;;
51296;SDS011;37380;45.186;9.792;2023-02-28T06:49:19;13.52;;;11.65;;
51296;SDS011;37380;45.186;9.792;2023-02-28T06:51:46;13.95;;;11.43;;
51296;SDS011;37380;45.186;9.792;2023-02-28T06:54:13;22.25;;;13.60;;
51296;SDS011;37380;45.186;9.792;2023-02-28T06:56:40;15.77;;;12.95;;
51296;SDS011;37380;45.186;9.792;2023-02-28T06:59:14;20.58;;;11.23;;
51296;SDS011;37380;45.186;9.792;2023-02-28T07:02:15;19.50;;;10.48;;
51296;SDS011;37380;45.186;9.792;2023-02-28T07:05:16;12.63;;;9.30;;
51296;SDS011;37380;45.186;9.792;2023-02-28T07:08:17;10.38;;;9.00;;
51296;SDS011;37380;45.186;9.792;2023-02-28T07:11:11;12.40;;;9.20;;
51296;SDS011;37380;45.186;9.792;2023-02-28T07:13:38;12.95;;;10.02;;
51296;SDS011;37380;45.186;9.792;2023-02-28T07:16:05;16.70;;;10.95;;
51296;SDS011;37380;45.186;9.792;2023-02-28T07:18:35;17.98;;;10.50;;
51296;SDS011;37380;45.186;9.792;2023-02-28T07:21:10;19.17;;;10.80;;
51296;SDS011;37380;45.186;9.792;2023-02-28T07:23:58;15.13;;;11.95;;
51296;SDS011;37380;45.186;9.792;2023-02-28T07:26:32;21.75;;;12.63;;
51296;SDS011;37380;45.186;9.792;2023-02-28T07:29:26;18.63;;;12.95;;
51296;SDS011;37380;45.186;9.792;2023-02-28T07:31:53;17.88;;;12.93;;
51296;SDS011;37380;45.186;9.792;2023-02-28T07:34:20;16.83;;;12.32;;
51296;SDS011;37380;45.186;9.792;2023-02-28T07:36:48;15.35;;;11.88;;
51296;SDS011;37380;45.186;9.792;2023-02-28T07:39:15;16.13;;;12.77;;
51296;SDS011;37380;45.186;9.792;2023-02-28T07:41:41;13.95;;;11.35;;
51296;SDS011;37380;45.186;9.792;2023-02-28T07:44:10;15.50;;;12.57;;
51296;SDS011;37380;45.186;9.792;2023-02-28T07:46:37;26.35;;;12.80;;
51296;SDS011;37380;45.186;9.792;2023-02-28T07:49:05;26.08;;;13.30;;
51296;SDS011;37380;45.186;9.792;2023-02-28T07:51:39;15.88;;;13.07;;
51296;SDS011;37380;45.186;9.792;2023-02-28T07:54:33;19.88;;;12.57;;
51296;SDS011;37380;45.186;9.792;2023-02-28T07:57:04;13.52;;;10.35;;
51296;SDS011;37380;45.186;9.792;2023-02-28T07:59:31;16.50;;;13.75;;
51296;SDS011;37380;45.186;9.792;2023-02-28T08:01:58;22.77;;;13.38;;
51296;SDS011;37380;45.186;9.792;2023-02-28T08:04:26;14.63;;;12.18;;
51296;SDS011;37380;45.186;9.792;2023-02-28T08:06:53;18.90;;;12.55;;
51296;SDS011;37380;45.186;9.792;2023-02-28T08:09:20;35.40;;;14.60;;
51296;SDS011;37380;45.186;9.792;2023-02-28T08:11:47;18.35;;;13.45;;
51296;SDS011;37380;45.186;9.792;2023-02-28T08:14:21;15.48;;;11.38;;
51296;SDS011;37380;45.186;9.792;2023-02-28T08:17:23;17.65;;;14.32;;
51296;SDS011;37380;45.186;9.792;2023-02-28T08:20:24;18.33;;;12.43;;
51296;SDS011;37380;45.186;9.792;2023-02-28T08:23:26;13.93;;;11.23;;
51296;SDS011;37380;45.186;9.792;2023-02-28T08:26:27;14.20;;;9.75;;
51296;SDS011;37380;45.186;9.792;2023-02-28T08:29:21;19.10;;;13.50;;
51296;SDS011;37380;45.186;9.792;2023-02-28T08:31:55;19.20;;;12.02;;
51296;SDS011;37380;45.186;9.792;2023-02-28T08:35:14;12.48;;;9.90;;
51296;SDS011;37380;45.186;9.792;2023-02-28T08:38:15;13.30;;;10.23;;
51296;SDS011;37380;45.186;9.792;2023-02-28T08:40:45;15.05;;;10.35;;
51296;SDS011;37380;45.186;9.792;2023-02-28T08:43:12;10.93;;;8.75;;
51296;SDS011;37380;45.186;9.792;2023-02-28T08:45:39;13.57;;;9.98;;
51296;SDS011;37380;45.186;9.792;2023-02-28T08:48:07;12.20;;;8.57;;
51296;SDS011;37380;45.186;9.792;2023-02-28T08:50:33;10.15;;;8.95;;
51296;SDS011;37380;45.186;9.792;2023-02-28T08:53:01;12.25;;;8.82;;
51296;SDS011;37380;45.186;9.792;2023-02-28T08:55:28;13.02;;;10.55;;
51296;SDS011;37380;45.186;9.792;2023-02-28T08:57:55;11.95;;;9.73;;
51296;SDS011;37380;45.186;9.792;2023-02-28T09:00:28;18.38;;;8.38;;
51296;SDS011;37380;45.186;9.792;2023-02-28T09:03:23;8.95;;;7.88;;
51296;SDS011;37380;45.186;9.792;2023-02-28T09:05:58;18.35;;;9.48;;
51296;SDS011;37380;45.186;9.792;2023-02-28T09:08:28;11.68;;;8.38;;
51296;SDS011;37380;45.186;9.792;2023-02-28T09:10:57;8.02;;;7.22;;
51296;SDS011;37380;45.186;9.792;2023-02-28T09:13:27;13.35;;;10.07;;
51296;SDS011;37380;45.186;9.792;2023-02-28T09:15:56;20.05;;;8.55;;
51296;SDS011;37380;45.186;9.792;2023-02-28T09:18:25;10.80;;;7.70;;
51296;SDS011;37380;45.186;9.792;2023-02-28T09:20:59;11.43;;;7.28;;
51296;SDS011;37380;45.186;9.792;2023-02-28T09:23:55;13.65;;;8.48;;
51296;SDS011;37380;45.186;9.792;2023-02-28T09:26:49;10.60;;;7.25;;
51296;SDS011;37380;45.186;9.792;2023-02-28T09:29:30;9.77;;;8.18;;
51296;SDS011;37380;45.186;9.792;2023-02-28T09:32:05;7.13;;;6.35;;
51296;SDS011;37380;45.186;9.792;2023-02-28T09:34:59;14.48;;;7.55;;
51296;SDS011;37380;45.186;9.792;2023-02-28T09:37:26;10.63;;;7.45;;
51296;SDS011;37380;45.186;9.792;2023-02-28T09:39:55;8.65;;;6.55;;
51296;SDS011;37380;45.186;9.792;2023-02-28T09:42:30;8.50;;;7.60;;
51296;SDS011;37380;45.186;9.792;2023-02-28T09:45:05;8.55;;;7.75;;
51296;SDS011;37380;45.186;9.792;2023-02-28T09:47:43;9.63;;;6.43;;
51296;SDS011;37380;45.186;9.792;2023-02-28T09:50:17;7.78;;;6.43;;
51296;SDS011;37380;45.186;9.792;2023-02-28T09:52:56;10.77;;;7.18;;
51296;SDS011;37380;45.186;9.792;2023-02-28T09:55:43;8.63;;;6.68;;
51296;SDS011;37380;45.186;9.792;2023-02-28T09:58:20;7.82;;;6.25;;
51296;SDS011;37380;45.186;9.792;2023-02-28T10:09:58;9.30;;;7.47;;
51296;SDS011;37380;45.186;9.792;2023-02-28T10:12:29;10.65;;;6.60;;
51296;SDS011;37380;45.186;9.792;2023-02-28T10:14:57;11.40;;;7.55;;
51296;SDS011;37380;45.186;9.792;2023-02-28T10:17:27;11.02;;;8.10;;
51296;SDS011;37380;45.186;9.792;2023-02-28T10:23:31;9.63;;;8.73;;
51296;SDS011;37380;45.186;9.792;2023-02-28T10:26:12;8.85;;;7.65;;
51296;SDS011;37380;45.186;9.792;2023-02-28T10:28:42;10.13;;;8.32;;
51296;SDS011;37380;45.186;9.792;2023-02-28T10:31:18;16.77;;;7.55;;
51296;SDS011;37380;45.186;9.792;2023-02-28T10:34:20;9.23;;;6.93;;
51296;SDS011;37380;45.186;9.792;2023-02-28T10:37:21;10.82;;;8.13;;
51296;SDS011;37380;45.186;9.792;2023-02-28T10:40:06;11.02;;;7.35;;
51296;SDS011;37380;45.186;9.792;2023-02-28T10:45:31;9.03;;;6.90;;
51296;SDS011;37380;45.186;9.792;2023-02-28T10:48:01;10.35;;;7.80;;
51296;SDS011;37380;45.186;9.792;2023-02-28T10:55:43;11.48;;;6.40;;
51296;SDS011;37380;45.186;9.792;2023-02-28T10:58:23;16.65;;;7.20;;
51296;SDS011;37380;45.186;9.792;2023-02-28T11:00:52;12.18;;;8.15;;
51296;SDS011;37380;45.186;9.792;2023-02-28T11:03:29;11.05;;;7.90;;
51296;SDS011;37380;45.186;9.792;2023-02-28T11:06:12;12.00;;;6.85;;
51296;SDS011;37380;45.186;9.792;2023-02-28T11:09:30;9.32;;;8.32;;
51296;SDS011;37380;45.186;9.792;2023-02-28T11:12:37;14.60;;;9.57;;
51296;SDS011;37380;45.186;9.792;2023-02-28T11:17:44;9.98;;;7.72;;
51296;SDS011;37380;45.186;9.792;2023-02-28T11:20:48;19.95;;;7.78;;
51296;SDS011;37380;45.186;9.792;2023-02-28T11:23:46;10.30;;;7.78;;
51296;SDS011;37380;45.186;9.792;2023-02-28T11:26:16;9.38;;;8.30;;
51296;SDS011;37380;45.186;9.792;2023-02-28T11:29:35;9.48;;;8.05;;
51296;SDS011;37380;45.186;9.792;2023-02-28T11:37:37;12.93;;;9.52;;
51296;SDS011;37380;45.186;9.792;2023-02-28T11:40:08;15.05;;;9.27;;
51296;SDS011;37380;45.186;9.792;2023-02-28T11:45:45;9.95;;;8.45;;
51296;SDS011;37380;45.186;9.792;2023-02-28T11:49:03;11.35;;;7.97;;
51296;SDS011;37380;45.186;9.792;2023-02-28T11:52:38;12.80;;;8.95;;
51296;SDS011;37380;45.186;9.792;2023-02-28T11:57:57;12.57;;;9.82;;
51296;SDS011;37380;45.186;9.792;2023-02-28T12:03:19;18.45;;;11.60;;
51296;SDS011;37380;45.186;9.792;2023-02-28T12:06:13;10.90;;;8.13;;
51296;SDS011;37380;45.186;9.792;2023-02-28T12:09:35;15.35;;;8.93;;
51296;SDS011;37380;45.186;9.792;2023-02-28T12:18:13;10.57;;;9.05;;
51296;SDS011;37380;45.186;9.792;2023-02-28T12:24:25;17.05;;;11.52;;
51296;SDS011;37380;45.186;9.792;2023-02-28T12:27:02;14.02;;;11.18;;
51296;SDS011;37380;45.186;9.792;2023-02-28T12:29:34;18.50;;;10.30;;
51296;SDS011;37380;45.186;9.792;2023-02-28T12:35:36;15.07;;;10.23;;
51296;SDS011;37380;45.186;9.792;2023-02-28T12:38:47;9.93;;;8.75;;
51296;SDS011;37380;45.186;9.792;2023-02-28T12:44:45;14.20;;;10.40;;
51296;SDS011;37380;45.186;9.792;2023-02-28T12:47:42;14.88;;;11.38;;
51296;SDS011;37380;45.186;9.792;2023-02-28T12:53:09;15.50;;;10.43;;
51296;SDS011;37380;45.186;9.792;2023-02-28T12:56:21;9.73;;;8.55;;
51296;SDS011;37380;45.186;9.792;2023-02-28T12:58:47;11.02;;;9.93;;
51296;SDS011;37380;45.186;9.792;2023-02-28T13:14:15;16.02;;;11.52;;
51296;SDS011;37380;45.186;9.792;2023-02-28T13:20:01;15.32;;;10.65;;
51296;SDS011;37380;45.186;9.792;2023-02-28T13:34:35;14.95;;;9.32;;
51296;SDS011;37380;45.186;9.792;2023-02-28T13:40:06;14.68;;;9.10;;
51296;SDS011;37380;45.186;9.792;2023-02-28T13:43:02;11.02;;;9.38;;
51296;SDS011;37380;45.186;9.792;2023-02-28T13:46:13;17.98;;;10.05;;
51296;SDS011;37380;45.186;9.792;2023-02-28T13:52:18;11.15;;;9.90;;
51296;SDS011;37380;45.186;9.792;2023-02-28T14:00:57;15.07;;;10.65;;
51296;SDS011;37380;45.186;9.792;2023-02-28T14:03:44;15.98;;;11.15;;
51296;SDS011;37380;45.186;9.792;2023-02-28T14:06:59;27.27;;;12.57;;
51296;SDS011;37380;45.186;9.792;2023-02-28T14:10:30;13.57;;;10.55;;
51296;SDS011;37380;45.186;9.792;2023-02-28T14:13:52;14.48;;;11.13;;
51296;SDS011;37380;45.186;9.792;2023-02-28T14:16:21;12.85;;;11.20;;
51296;SDS011;37380;45.186;9.792;2023-02-28T14:19:00;12.27;;;9.90;;
51296;SDS011;37380;45.186;9.792;2023-02-28T14:21:53;15.13;;;10.48;;
51296;SDS011;37380;45.186;9.792;2023-02-28T14:33:46;15.15;;;11.00;;
51296;SDS011;37380;45.186;9.792;2023-02-28T14:36:41;17.90;;;12.63;;
51296;SDS011;37380;45.186;9.792;2023-02-28T14:39:16;23.83;;;14.07;;
51296;SDS011;37380;45.186;9.792;2023-02-28T14:41:49;15.38;;;11.50;;
51296;SDS011;37380;45.186;9.792;2023-02-28T14:44:24;20.92;;;12.25;;
51296;SDS011;37380;45.186;9.792;2023-02-28T14:47:35;11.52;;;10.30;;
51296;SDS011;37380;45.186;9.792;2023-02-28T14:50:36;14.30;;;12.63;;
51296;SDS011;37380;45.186;9.792;2023-02-28T14:53:47;14.20;;;10.98;;
51296;SDS011;37380;45.186;9.792;2023-02-28T14:56:24;9.93;;;8.93;;
51296;SDS011;37380;45.186;9.792;2023-02-28T14:59:29;11.63;;;10.40;;
51296;SDS011;37380;45.186;9.792;2023-02-28T15:04:59;14.05;;;11.82;;
51296;SDS011;37380;45.186;9.792;2023-02-28T15:08:14;16.42;;;11.85;;
51296;SDS011;37380;45.186;9.792;2023-02-28T15:10:49;14.82;;;11.98;;
51296;SDS011;37380;45.186;9.792;2023-02-28T15:13:19;14.68;;;11.65;;
51296;SDS011;37380;45.186;9.792;2023-02-28T15:16:04;12.50;;;10.98;;
51296;SDS011;37380;45.186;9.792;2023-02-28T15:19:26;12.68;;;11.02;;
51296;SDS011;37380;45.186;9.792;2023-02-28T15:22:35;11.65;;;10.57;;
51296;SDS011;37380;45.186;9.792;2023-02-28T15:25:37;13.93;;;11.80;;
51296;SDS011;37380;45.186;9.792;2023-02-28T15:28:34;12.63;;;11.30;;
51296;SDS011;37380;45.186;9.792;2023-02-28T15:31:03;18.70;;;11.43;;
51296;SDS011;37380;45.186;9.792;2023-02-28T15:33:57;14.07;;;12.15;;
51296;SDS011;37380;45.186;9.792;2023-02-28T15:36:55;12.77;;;11.48;;
51296;SDS011;37380;45.186;9.792;2023-02-28T15:39:24;15.95;;;13.95;;
51296;SDS011;37380;45.186;9.792;2023-02-28T15:42:09;13.43;;;12.13;;
51296;SDS011;37380;45.186;9.792;2023-02-28T15:44:38;17.25;;;11.80;;
51296;SDS011;37380;45.186;9.792;2023-02-28T15:47:19;17.15;;;13.35;;
51296;SDS011;37380;45.186;9.792;2023-02-28T15:50:14;13.70;;;12.13;;
51296;SDS011;37380;45.186;9.792;2023-02-28T15:52:43;17.45;;;13.38;;
51296;SDS011;37380;45.186;9.792;2023-02-28T15:55:22;15.05;;;13.10;;
51296;SDS011;37380;45.186;9.792;2023-02-28T15:58:20;26.15;;;12.35;;
51296;SDS011;37380;45.186;9.792;2023-02-28T16:01:05;16.73;;;13.15;;
51296;SDS011;37380;45.186;9.792;2023-02-28T16:04:12;17.23;;;13.63;;
51296;SDS011;37380;45.186;9.792;2023-02-28T16:07:13;35.70;;;13.52;;
51296;SDS011;37380;45.186;9.792;2023-02-28T16:09:41;21.92;;;15.23;;
51296;SDS011;37380;45.186;9.792;2023-02-28T16:12:09;23.95;;;12.98;;
51296;SDS011;37380;45.186;9.792;2023-02-28T16:14:40;19.10;;;13.55;;
51296;SDS011;37380;45.186;9.792;2023-02-28T16:17:17;15.40;;;13.30;;
51296;SDS011;37380;45.186;9.792;2023-02-28T16:19:47;27.58;;;15.90;;
51296;SDS011;37380;45.186;9.792;2023-02-28T16:22:21;21.58;;;13.65;;
51296;SDS011;37380;45.186;9.792;2023-02-28T16:25:23;27.33;;;13.38;;
51296;SDS011;37380;45.186;9.792;2023-02-28T16:28:18;18.17;;;14.68;;
51296;SDS011;37380;45.186;9.792;2023-02-28T16:30:51;15.60;;;13.93;;
51296;SDS011;37380;45.186;9.792;2023-02-28T16:33:25;21.83;;;16.00;;
51296;SDS011;37380;45.186;9.792;2023-02-28T16:36:22;26.45;;;15.80;;
51296;SDS011;37380;45.186;9.792;2023-02-28T16:38:53;27.52;;;17.13;;
51296;SDS011;37380;45.186;9.792;2023-02-28T16:41:22;26.42;;;15.43;;
51296;SDS011;37380;45.186;9.792;2023-02-28T16:43:55;15.15;;;13.25;;
51296;SDS011;37380;45.186;9.792;2023-02-28T16:46:46;22.70;;;16.38;;
51296;SDS011;37380;45.186;9.792;2023-02-28T16:49:47;37.45;;;15.48;;
51296;SDS011;37380;45.186;9.792;2023-02-28T16:52:41;21.33;;;14.55;;
51296;SDS011;37380;45.186;9.792;2023-02-28T16:55:17;26.25;;;15.60;;
51296;SDS011;37380;45.186;9.792;2023-02-28T16:58:13;19.90;;;15.13;;
51296;SDS011;37380;45.186;9.792;2023-02-28T17:00:42;26.13;;;14.88;;
51296;SDS011;37380;45.186;9.792;2023-02-28T17:03:14;22.58;;;14.48;;
51296;SDS011;37380;45.186;9.792;2023-02-28T17:05:58;16.08;;;13.88;;
51296;SDS011;37380;45.186;9.792;2023-02-28T17:08:25;24.50;;;16.35;;
51296;SDS011;37380;45.186;9.792;2023-02-28T17:10:55;39.67;;;15.98;;
51296;SDS011;37380;45.186;9.792;2023-02-28T17:13:22;20.02;;;14.40;;
51296;SDS011;37380;45.186;9.792;2023-02-28T17:15:56;34.30;;;16.90;;
51296;SDS011;37380;45.186;9.792;2023-02-28T17:18:50;22.40;;;14.65;;
51296;SDS011;37380;45.186;9.792;2023-02-28T17:21:25;17.52;;;14.98;;
51296;SDS011;37380;45.186;9.792;2023-02-28T17:24:26;23.38;;;15.65;;
51296;SDS011;37380;45.186;9.792;2023-02-28T17:27:27;24.73;;;15.07;;
51296;SDS011;37380;45.186;9.792;2023-02-28T17:30:22;35.33;;;17.27;;
51296;SDS011;37380;45.186;9.792;2023-02-28T17:33:10;21.58;;;16.95;;
51296;SDS011;37380;45.186;9.792;2023-02-28T17:36:04;30.45;;;16.45;;
51296;SDS011;37380;45.186;9.792;2023-02-28T17:38:32;34.00;;;17.20;;
51296;SDS011;37380;45.186;9.792;2023-02-28T17:40:59;29.67;;;17.65;;
51296;SDS011;37380;45.186;9.792;2023-02-28T17:43:26;59.97;;;24.45;;
51296;SDS011;37380;45.186;9.792;2023-02-28T17:46:03;48.75;;;23.80;;
51296;SDS011;37380;45.186;9.792;2023-02-28T17:49:04;38.42;;;22.58;;
51296;SDS011;37380;45.186;9.792;2023-02-28T17:51:58;49.70;;;21.80;;
51296;SDS011;37380;45.186;9.792;2023-02-28T17:54:25;52.08;;;24.70;;
51296;SDS011;37380;45.186;9.792;2023-02-28T17:56:52;31.42;;;20.85;;
51296;SDS011;37380;45.186;9.792;2023-02-28T17:59:19;22.83;;;18.23;;
51296;SDS011;37380;45.186;9.792;2023-02-28T18:01:46;29.83;;;19.48;;
51296;SDS011;37380;45.186;9.792;2023-02-28T18:04:13;24.73;;;15.70;;
51296;SDS011;37380;45.186;9.792;2023-02-28T18:06:44;23.15;;;17.75;;